createdAt,value
2022-10-06T00:02:06.397Z,3.80
2022-10-06T00:05:09.037Z,3.70
2022-10-06T00:08:11.800Z,4.18
2022-10-06T00:11:15.523Z,3.97
2022-10-06T00:14:18.041Z,4.10
2022-10-06T00:17:20.569Z,3.95
2022-10-06T00:20:25.706Z,3.33
2022-10-06T00:23:29.178Z,3.72
2022-10-06T00:26:31.738Z,3.75
2022-10-06T00:29:34.464Z,4.03
2022-10-06T00:32:37.941Z,4.00
2022-10-06T00:35:40.441Z,4.00
2022-10-06T00:38:43.323Z,4.20
2022-10-06T00:41:45.884Z,3.60
2022-10-06T00:44:49.827Z,3.80
2022-10-06T00:47:53.672Z,3.90
2022-10-06T00:50:57.431Z,4.00
2022-10-06T00:54:01.088Z,3.75
2022-10-06T00:57:05.535Z,3.70
2022-10-06T01:00:09.413Z,3.60
2022-10-06T01:03:16.118Z,3.77
2022-10-06T01:06:18.665Z,3.50
2022-10-06T01:09:22.352Z,3.92
2022-10-06T01:12:26.708Z,3.40
2022-10-06T01:15:29.419Z,3.45
2022-10-06T01:18:32.397Z,3.50
2022-10-06T01:21:39.380Z,3.50
2022-10-06T01:24:42.265Z,3.83
2022-10-06T01:27:50.904Z,3.60
2022-10-06T01:30:54.855Z,3.70
2022-10-06T01:33:58.026Z,3.60
2022-10-06T01:37:00.515Z,3.13
2022-10-06T01:40:03.303Z,3.62
2022-10-06T01:43:05.903Z,3.80
2022-10-06T01:46:08.489Z,3.12
2022-10-06T01:49:11.036Z,3.60
2022-10-06T01:52:13.617Z,3.60
2022-10-06T01:55:17.443Z,3.83
2022-10-06T01:58:20.248Z,3.70
2022-10-06T02:01:22.881Z,3.42
2022-10-06T02:04:25.539Z,3.63
2022-10-06T02:07:28.477Z,3.90
2022-10-06T02:10:31.495Z,3.47
2022-10-06T02:13:34.171Z,3.47
2022-10-06T02:16:36.699Z,3.42
2022-10-06T02:19:39.298Z,3.33
2022-10-06T02:22:43.880Z,3.73
2022-10-06T02:25:46.401Z,3.67
2022-10-06T02:28:50.239Z,3.33
2022-10-06T02:31:52.828Z,3.22
2022-10-06T02:34:55.871Z,3.40
2022-10-06T02:37:58.497Z,3.60
2022-10-06T02:41:02.257Z,3.47
2022-10-06T02:44:05.344Z,3.65
2022-10-06T02:47:14.371Z,2.90
2022-10-06T02:50:17.117Z,3.50
2022-10-06T02:53:20.049Z,3.03
2022-10-06T02:56:24.383Z,3.33
2022-10-06T02:59:27.783Z,3.70
2022-10-06T03:02:31.131Z,3.45
2022-10-06T03:05:33.743Z,3.47
2022-10-06T03:08:36.297Z,3.60
2022-10-06T03:11:40.969Z,3.37
2022-10-06T03:14:43.480Z,3.55
2022-10-06T03:17:49.523Z,3.75
2022-10-06T03:20:54.175Z,3.67
2022-10-06T03:23:57.825Z,3.40
2022-10-06T03:27:00.367Z,3.53
2022-10-06T03:30:03.699Z,3.60
2022-10-06T03:33:06.895Z,3.70
2022-10-06T03:36:17.491Z,3.87
2022-10-06T03:39:20.042Z,3.40
2022-10-06T03:42:22.691Z,3.50
2022-10-06T03:45:25.284Z,3.10
2022-10-06T03:48:33.523Z,3.58
2022-10-06T03:51:41.024Z,3.37
2022-10-06T03:54:43.544Z,3.53
2022-10-06T03:57:46.054Z,3.67
2022-10-06T04:00:48.591Z,3.30
2022-10-06T04:03:51.978Z,3.50
2022-10-06T04:06:54.613Z,3.73
2022-10-06T04:09:57.203Z,3.80
2022-10-06T04:12:59.824Z,3.65
2022-10-06T04:16:17.586Z,3.62
2022-10-06T04:19:20.301Z,3.60
2022-10-06T04:22:22.857Z,4.30
2022-10-06T04:25:25.377Z,4.20
2022-10-06T04:28:28.248Z,3.72
2022-10-06T04:31:33.769Z,4.05
2022-10-06T04:34:36.364Z,4.82
2022-10-06T04:37:39.609Z,4.80
2022-10-06T04:40:42.153Z,5.00
2022-10-06T04:43:48.811Z,5.55
2022-10-06T04:46:51.395Z,7.00
2022-10-06T04:49:53.953Z,7.28
2022-10-06T04:52:57.224Z,6.40
2022-10-06T04:56:12.167Z,6.10
2022-10-06T04:59:14.996Z,5.32
2022-10-06T05:02:17.736Z,5.97
2022-10-06T05:05:20.378Z,6.93
2022-10-06T05:08:22.906Z,6.70
2022-10-06T05:11:26.304Z,7.03
2022-10-06T05:14:28.888Z,8.38
2022-10-06T05:17:31.399Z,7.80
2022-10-06T05:20:36.454Z,17.65
2022-10-06T05:23:41.285Z,12.90
2022-10-06T05:26:43.933Z,14.30
2022-10-06T05:29:47.565Z,14.77
2022-10-06T05:32:50.699Z,20.85
2022-10-06T05:36:04.196Z,22.92
2022-10-06T05:39:07.304Z,24.53
2022-10-06T05:42:09.920Z,28.17
2022-10-06T05:45:12.511Z,26.85
2022-10-06T05:48:15.093Z,26.95
2022-10-06T05:51:19.334Z,21.17
2022-10-06T05:54:21.899Z,18.10
2022-10-06T05:57:24.442Z,17.77
2022-10-06T06:00:27.101Z,17.15
2022-10-06T06:03:29.750Z,20.35
2022-10-06T06:06:34.918Z,16.95
2022-10-06T06:09:37.885Z,17.13
2022-10-06T06:12:40.438Z,15.40
2022-10-06T06:16:01.257Z,15.13
2022-10-06T06:19:04.031Z,13.85
2022-10-06T06:22:06.606Z,13.90
2022-10-06T06:25:09.623Z,10.60
2022-10-06T06:28:12.176Z,11.03
2022-10-06T06:31:30.028Z,10.00
2022-10-06T06:34:32.584Z,8.95
2022-10-06T06:37:35.121Z,8.73
2022-10-06T06:40:41.590Z,7.93
2022-10-06T06:43:45.536Z,8.03
2022-10-06T06:46:49.423Z,8.23
2022-10-06T06:49:51.964Z,7.68
2022-10-06T06:52:55.269Z,7.72
2022-10-06T06:55:58.240Z,7.80
2022-10-06T06:59:02.199Z,7.27
2022-10-06T07:02:04.929Z,7.97
2022-10-06T07:05:07.490Z,7.40
2022-10-06T07:08:10.480Z,7.37
2022-10-06T07:11:18.219Z,7.85
2022-10-06T07:14:22.791Z,7.17
2022-10-06T07:17:44.095Z,6.75
2022-10-06T07:21:05.259Z,6.90
2022-10-06T07:24:27.865Z,7.68
2022-10-06T07:27:31.190Z,7.95
2022-10-06T07:30:38.407Z,7.07
2022-10-06T07:33:43.148Z,7.03
2022-10-06T07:36:46.940Z,6.45
2022-10-06T07:39:49.821Z,6.45
2022-10-06T07:42:52.498Z,6.10
2022-10-06T07:45:56.478Z,5.33
2022-10-06T07:48:59.665Z,5.35
2022-10-06T07:52:05.541Z,4.60
2022-10-06T07:55:08.330Z,5.68
2022-10-06T07:58:19.562Z,5.47
2022-10-06T08:01:22.207Z,5.10
2022-10-06T08:04:24.869Z,5.53
2022-10-06T08:07:27.375Z,5.28
2022-10-06T08:10:29.944Z,5.18
2022-10-06T08:13:32.626Z,4.97
2022-10-06T08:16:35.331Z,5.90
2022-10-06T08:19:38.359Z,5.57
2022-10-06T08:22:41.030Z,5.95
2022-10-06T08:25:50.992Z,5.40
2022-10-06T08:28:55.611Z,6.05
2022-10-06T08:31:59.733Z,5.50
2022-10-06T08:35:02.439Z,6.22
2022-10-06T08:38:05.503Z,5.93
2022-10-06T08:41:18.363Z,5.75
2022-10-06T08:44:32.486Z,5.55
2022-10-06T08:47:36.092Z,5.60
2022-10-06T08:51:38.126Z,5.15
2022-10-06T08:54:58.453Z,4.90
2022-10-06T08:58:31.223Z,4.75
2022-10-06T09:01:45.205Z,5.53
2022-10-06T09:04:49.821Z,5.70
2022-10-06T09:08:16.465Z,5.97
2022-10-06T09:11:32.026Z,6.37
2022-10-06T09:14:51.665Z,5.78
2022-10-06T09:18:02.387Z,5.40
2022-10-06T09:21:07.155Z,5.50
2022-10-06T09:24:18.422Z,5.68
2022-10-06T09:27:24.133Z,5.65
2022-10-06T09:30:27.139Z,5.37
2022-10-06T09:33:37.262Z,5.82
2022-10-06T09:37:09.911Z,5.07
2022-10-06T09:40:54.728Z,5.22
2022-10-06T09:44:00.088Z,5.78
2022-10-06T09:47:02.666Z,5.70
2022-10-06T09:50:27.851Z,6.05
2022-10-06T09:53:33.220Z,7.00
2022-10-06T09:56:45.325Z,6.22
2022-10-06T09:59:48.206Z,5.80
2022-10-06T10:03:06.055Z,5.37
2022-10-06T10:06:09.288Z,5.15
2022-10-06T10:09:21.797Z,5.77
2022-10-06T10:12:28.426Z,5.45
2022-10-06T10:15:39.447Z,5.87
2022-10-06T10:18:46.528Z,6.07
2022-10-06T10:21:49.384Z,5.30
2022-10-06T10:25:07.320Z,5.10
2022-10-06T10:28:34.796Z,5.40
2022-10-06T10:31:43.542Z,6.20
2022-10-06T10:35:00.548Z,5.47
2022-10-06T10:38:18.783Z,5.60
2022-10-06T10:41:25.039Z,5.70
2022-10-06T10:44:37.489Z,6.97
2022-10-06T10:47:43.039Z,5.37
2022-10-06T10:51:01.745Z,6.12
2022-10-06T10:54:21.673Z,5.43
2022-10-06T10:57:30.713Z,4.80
2022-10-06T11:00:36.526Z,5.00
2022-10-06T11:03:39.164Z,5.57
2022-10-06T11:07:14.416Z,5.20
2022-10-06T11:10:22.416Z,5.22
2022-10-06T11:13:51.293Z,5.10
2022-10-06T11:17:01.513Z,5.07
2022-10-06T11:20:11.744Z,4.85
2022-10-06T11:23:37.377Z,4.90
2022-10-06T11:26:41.212Z,5.47
2022-10-06T11:30:05.719Z,4.93
2022-10-06T11:33:16.724Z,5.07
2022-10-06T11:36:49.000Z,4.65
2022-10-06T11:40:09.789Z,5.25
2022-10-06T11:43:20.242Z,5.30
2022-10-06T11:46:46.214Z,5.77
2022-10-06T11:49:53.702Z,13.65
2022-10-06T11:52:56.498Z,5.95
2022-10-06T11:56:17.485Z,5.93
2022-10-06T11:59:31.802Z,5.97
2022-10-06T12:02:37.568Z,6.27
2022-10-06T12:05:56.867Z,7.03
2022-10-06T12:08:59.947Z,6.32
2022-10-06T12:12:08.374Z,6.75
2022-10-06T12:18:54.459Z,6.50
2022-10-06T12:22:16.986Z,6.43
2022-10-06T12:25:28.494Z,10.52
2022-10-06T12:28:42.028Z,7.35
2022-10-06T12:32:00.775Z,6.53
2022-10-06T12:35:10.506Z,6.57
2022-10-06T12:38:31.551Z,6.25
2022-10-06T12:42:00.336Z,6.45
2022-10-06T12:45:16.389Z,7.03
2022-10-06T12:48:24.994Z,7.00
2022-10-06T12:51:43.096Z,6.97
2022-10-06T12:55:03.462Z,6.20
2022-10-06T12:58:08.195Z,6.28
2022-10-06T13:01:12.902Z,6.50
2022-10-06T13:04:36.032Z,6.35
2022-10-06T13:07:57.380Z,9.30
2022-10-06T13:11:12.253Z,9.68
2022-10-06T13:14:15.194Z,8.02
2022-10-06T13:17:17.776Z,8.30
2022-10-06T13:20:36.789Z,6.60
2022-10-06T13:23:39.806Z,6.30
2022-10-06T13:26:42.748Z,5.97
2022-10-06T13:29:45.404Z,5.45
2022-10-06T13:32:57.643Z,5.87
2022-10-06T13:36:00.296Z,5.55
2022-10-06T13:39:07.315Z,6.17
2022-10-06T13:42:17.794Z,6.97
2022-10-06T13:45:20.524Z,6.18
2022-10-06T13:48:26.162Z,6.35
2022-10-06T13:51:30.999Z,6.40
2022-10-06T13:54:38.890Z,6.23
2022-10-06T13:58:06.515Z,6.47
2022-10-06T14:01:12.308Z,6.25
2022-10-06T14:04:18.422Z,6.25
2022-10-06T14:07:22.354Z,6.97
2022-10-06T14:10:31.633Z,6.50
2022-10-06T14:13:56.680Z,6.55
2022-10-06T14:16:59.426Z,6.40
2022-10-06T14:20:02.434Z,6.72
2022-10-06T14:23:43.339Z,6.47
2022-10-06T14:26:50.089Z,6.20
2022-10-06T14:29:53.045Z,5.90
2022-10-06T14:32:55.548Z,6.40
2022-10-06T14:35:58.164Z,6.47
2022-10-06T14:39:01.579Z,6.72
2022-10-06T14:42:04.327Z,6.47
2022-10-06T14:45:08.206Z,6.05
2022-10-06T14:48:12.085Z,6.25
2022-10-06T14:51:16.823Z,5.85
2022-10-06T14:54:20.468Z,6.03
2022-10-06T14:57:23.063Z,6.30
2022-10-06T15:00:29.272Z,6.03
2022-10-06T15:03:32.059Z,6.57
2022-10-06T15:06:53.204Z,7.60
2022-10-06T15:09:57.366Z,6.82
2022-10-06T15:13:00.423Z,5.77
2022-10-06T15:16:02.995Z,5.85
2022-10-06T15:19:05.799Z,5.60
2022-10-06T15:22:10.145Z,5.40
2022-10-06T15:25:32.782Z,5.20
2022-10-06T15:28:53.852Z,5.33
2022-10-06T15:31:56.719Z,5.78
2022-10-06T15:35:00.427Z,5.50
2022-10-06T15:38:05.115Z,5.90
2022-10-06T15:41:07.847Z,5.07
2022-10-06T15:44:11.710Z,5.67
2022-10-06T15:47:14.274Z,6.60
2022-10-06T15:50:19.184Z,7.95
2022-10-06T15:53:22.704Z,11.38
2022-10-06T15:56:28.966Z,14.98
2022-10-06T15:59:33.969Z,20.40
2022-10-06T16:02:38.062Z,25.73
2022-10-06T16:05:51.922Z,21.75
2022-10-06T16:08:54.570Z,19.42
2022-10-06T16:11:58.279Z,20.50
2022-10-06T16:15:00.933Z,18.30
2022-10-06T16:18:03.476Z,18.12
2022-10-06T16:21:06.282Z,16.62
2022-10-06T16:24:09.430Z,16.60
2022-10-06T16:27:13.680Z,13.85
2022-10-06T16:30:16.520Z,11.30
2022-10-06T16:33:19.011Z,10.73
2022-10-06T16:36:22.071Z,10.23
2022-10-06T16:39:24.741Z,10.60
2022-10-06T16:42:27.494Z,12.82
2022-10-06T16:45:30.057Z,14.23
2022-10-06T16:48:34.953Z,13.55
2022-10-06T16:51:39.984Z,12.48
2022-10-06T16:54:42.971Z,12.20
2022-10-06T16:57:45.581Z,10.30
2022-10-06T17:00:59.077Z,11.50
2022-10-06T17:04:12.046Z,11.02
2022-10-06T17:07:14.909Z,11.27
2022-10-06T17:10:21.379Z,12.40
2022-10-06T17:13:24.217Z,9.52
2022-10-06T17:16:33.506Z,9.53
2022-10-06T17:19:36.288Z,9.55
2022-10-06T17:22:39.265Z,10.25
2022-10-06T17:25:43.035Z,9.82
2022-10-06T17:28:48.744Z,9.98
2022-10-06T17:31:56.492Z,10.50
2022-10-06T17:34:59.316Z,10.50
2022-10-06T17:38:05.915Z,11.23
2022-10-06T17:41:17.314Z,11.27
2022-10-06T17:44:27.454Z,10.90
2022-10-06T17:47:30.511Z,11.67
2022-10-06T17:50:33.729Z,10.77
2022-10-06T17:53:40.995Z,10.38
2022-10-06T17:56:44.902Z,10.85
2022-10-06T17:59:48.311Z,10.13
2022-10-06T18:02:57.269Z,10.50
2022-10-06T18:06:01.059Z,10.55
2022-10-06T18:09:05.843Z,10.75
2022-10-06T18:12:10.597Z,10.68
2022-10-06T18:15:13.432Z,10.70
2022-10-06T18:18:16.147Z,10.37
2022-10-06T18:21:24.960Z,10.50
2022-10-06T18:24:30.233Z,10.00
2022-10-06T18:27:33.586Z,10.30
2022-10-06T18:30:36.217Z,10.52
2022-10-06T18:36:10.579Z,12.33
2022-10-06T18:37:02.042Z,14.50
2022-10-06T18:40:07.111Z,18.92
2022-10-06T18:43:09.870Z,19.10
2022-10-06T18:46:32.686Z,18.92
2022-10-06T18:49:35.672Z,18.67
2022-10-06T18:52:38.401Z,17.05
2022-10-06T18:55:40.960Z,17.50
2022-10-06T18:58:48.626Z,17.40
2022-10-06T19:01:51.499Z,16.60
2022-10-06T19:04:55.445Z,17.70
2022-10-06T19:07:58.587Z,16.10
2022-10-06T19:11:24.969Z,17.40
2022-10-06T19:14:31.347Z,17.33
2022-10-06T19:17:34.238Z,16.58
2022-10-06T19:20:36.999Z,16.10
2022-10-06T19:23:40.790Z,16.08
2022-10-06T19:26:46.108Z,14.85
2022-10-06T19:29:54.808Z,14.80
2022-10-06T19:32:57.631Z,14.43
2022-10-06T19:36:00.954Z,12.53
2022-10-06T19:39:06.032Z,13.10
2022-10-06T19:42:36.069Z,13.07
2022-10-06T19:45:39.121Z,12.65
2022-10-06T19:48:41.934Z,14.65
2022-10-06T19:51:44.491Z,21.13
2022-10-06T19:54:47.386Z,27.30
2022-10-06T19:57:51.187Z,28.73
2022-10-06T20:00:53.833Z,31.33
2022-10-06T20:03:56.438Z,18.17
2022-10-06T20:07:01.866Z,17.17
2022-10-06T20:10:04.811Z,12.95
2022-10-06T20:13:07.419Z,13.35
2022-10-06T20:16:12.077Z,10.60
2022-10-06T20:19:14.933Z,10.10
2022-10-06T20:22:17.561Z,9.60
2022-10-06T20:25:20.180Z,8.27
2022-10-06T20:28:22.941Z,8.50
2022-10-06T20:31:31.664Z,8.60
2022-10-06T20:34:34.693Z,7.90
2022-10-06T20:37:38.513Z,7.37
2022-10-06T20:40:49.114Z,7.85
2022-10-06T20:43:54.116Z,7.57
2022-10-06T20:46:56.764Z,7.35
2022-10-06T20:49:59.288Z,7.67
2022-10-06T20:53:01.833Z,7.27
2022-10-06T20:56:05.830Z,8.00
2022-10-06T20:59:11.546Z,7.70
2022-10-06T21:02:14.105Z,7.22
2022-10-06T21:05:16.917Z,7.12
2022-10-06T21:08:19.433Z,6.80
2022-10-06T21:11:23.856Z,8.32
2022-10-06T21:14:26.435Z,7.87
2022-10-06T21:17:29.009Z,8.15
2022-10-06T21:20:31.589Z,7.82
2022-10-06T21:23:40.068Z,7.27
2022-10-06T21:26:42.846Z,7.80
2022-10-06T21:29:45.507Z,7.80
2022-10-06T21:32:48.134Z,7.68
2022-10-06T21:36:01.076Z,7.50
2022-10-06T21:39:07.065Z,7.60
2022-10-06T21:42:09.767Z,8.02
2022-10-06T21:45:12.405Z,7.25
2022-10-06T21:48:15.250Z,6.87
2022-10-06T21:51:18.095Z,6.75
2022-10-06T21:54:22.046Z,7.77
2022-10-06T21:57:24.543Z,7.15
2022-10-06T22:00:27.120Z,6.72
2022-10-06T22:03:29.627Z,7.00
2022-10-06T22:06:34.341Z,7.15
2022-10-06T22:09:36.822Z,6.60
2022-10-06T22:12:39.368Z,8.20
2022-10-06T22:15:41.908Z,7.93
2022-10-06T22:18:45.195Z,7.57
2022-10-06T22:21:48.739Z,7.45
2022-10-06T22:24:51.404Z,7.90
2022-10-06T22:27:53.958Z,7.97
2022-10-06T22:31:08.089Z,7.65
2022-10-06T22:34:12.970Z,7.97
2022-10-06T22:37:15.550Z,8.05
2022-10-06T22:40:18.067Z,7.97
2022-10-06T22:43:20.665Z,9.60
2022-10-06T22:46:24.904Z,8.48
2022-10-06T22:49:27.867Z,11.20
2022-10-06T22:52:30.425Z,9.35
2022-10-06T22:55:33.119Z,9.17
2022-10-06T22:58:35.817Z,10.10
2022-10-06T23:01:38.432Z,11.27
2022-10-06T23:04:40.977Z,12.27
2022-10-06T23:07:43.853Z,10.95
2022-10-06T23:10:46.585Z,10.83
2022-10-06T23:13:50.763Z,12.32
2022-10-06T23:16:53.420Z,11.15
2022-10-06T23:19:56.078Z,12.35
2022-10-06T23:22:58.585Z,12.32
2022-10-06T23:26:09.731Z,13.03
2022-10-06T23:29:12.430Z,14.20
2022-10-06T23:32:15.017Z,12.77
2022-10-06T23:35:17.584Z,13.00
2022-10-06T23:38:20.192Z,13.70
2022-10-06T23:41:22.800Z,16.50
2022-10-06T23:44:25.486Z,14.35
2022-10-06T23:47:28.051Z,14.57
2022-10-06T23:50:33.506Z,14.95
2022-10-06T23:53:36.527Z,15.07
2022-10-06T23:56:39.109Z,15.13
2022-10-06T23:59:41.912Z,15.80
